sensor_id;sensor_type;location;lat;lon;timestamp;temperature;humidity
35497;DHT22;21609;49.298;6.844;2023-09-12T00:00:51;24.90;61.80
35497;DHT22;21609;49.298;6.844;2023-09-12T00:03:20;24.90;61.80
35497;DHT22;21609;49.298;6.844;2023-09-12T00:05:56;24.90;61.80
35497;DHT22;21609;49.298;6.844;2023-09-12T00:08:22;24.90;62.00
35497;DHT22;21609;49.298;6.844;2023-09-12T00:10:57;24.90;62.10
35497;DHT22;21609;49.298;6.844;2023-09-12T00:13:23;24.90;61.90
35497;DHT22;21609;49.298;6.844;2023-09-12T00:15:48;24.90;61.90
35497;DHT22;21609;49.298;6.844;2023-09-12T00:18:14;24.90;61.90
35497;DHT22;21609;49.298;6.844;2023-09-12T00:20:39;24.90;62.00
35497;DHT22;21609;49.298;6.844;2023-09-12T00:23:05;24.90;62.00
35497;DHT22;21609;49.298;6.844;2023-09-12T00:25:30;24.90;62.00
35497;DHT22;21609;49.298;6.844;2023-09-12T00:27:56;24.90;61.90
35497;DHT22;21609;49.298;6.844;2023-09-12T00:30:21;24.90;62.00
35497;DHT22;21609;49.298;6.844;2023-09-12T00:32:47;24.90;61.90
35497;DHT22;21609;49.298;6.844;2023-09-12T00:35:12;24.90;61.90
35497;DHT22;21609;49.298;6.844;2023-09-12T00:37:38;24.90;61.90
35497;DHT22;21609;49.298;6.844;2023-09-12T00:40:04;24.90;62.00
35497;DHT22;21609;49.298;6.844;2023-09-12T00:42:29;24.90;61.90
35497;DHT22;21609;49.298;6.844;2023-09-12T00:44:55;24.90;61.90
35497;DHT22;21609;49.298;6.844;2023-09-12T00:47:20;24.80;61.90
35497;DHT22;21609;49.298;6.844;2023-09-12T00:49:47;24.80;61.90
35497;DHT22;21609;49.298;6.844;2023-09-12T00:52:14;24.90;61.90
35497;DHT22;21609;49.298;6.844;2023-09-12T00:54:39;24.90;61.90
35497;DHT22;21609;49.298;6.844;2023-09-12T00:57:05;24.80;62.00
35497;DHT22;21609;49.298;6.844;2023-09-12T00:59:31;24.80;61.90
35497;DHT22;21609;49.298;6.844;2023-09-12T01:01:56;24.90;61.90
35497;DHT22;21609;49.298;6.844;2023-09-12T01:04:22;24.80;62.20
35497;DHT22;21609;49.298;6.844;2023-09-12T01:06:47;24.80;61.90
35497;DHT22;21609;49.298;6.844;2023-09-12T01:09:13;24.80;61.90
35497;DHT22;21609;49.298;6.844;2023-09-12T01:11:39;24.80;61.90
35497;DHT22;21609;49.298;6.844;2023-09-12T01:14:06;24.80;61.90
35497;DHT22;21609;49.298;6.844;2023-09-12T01:16:31;24.80;61.90
35497;DHT22;21609;49.298;6.844;2023-09-12T01:18:57;24.80;61.90
35497;DHT22;21609;49.298;6.844;2023-09-12T01:21:46;24.80;61.90
35497;DHT22;21609;49.298;6.844;2023-09-12T01:24:31;24.80;61.90
35497;DHT22;21609;49.298;6.844;2023-09-12T01:27:14;24.80;61.90
35497;DHT22;21609;49.298;6.844;2023-09-12T01:29:41;24.80;61.90
35497;DHT22;21609;49.298;6.844;2023-09-12T01:32:08;24.80;61.90
35497;DHT22;21609;49.298;6.844;2023-09-12T01:34:33;24.80;61.90
35497;DHT22;21609;49.298;6.844;2023-09-12T01:36:59;24.80;61.90
35497;DHT22;21609;49.298;6.844;2023-09-12T01:39:24;24.80;61.90
35497;DHT22;21609;49.298;6.844;2023-09-12T01:41:50;24.80;62.00
35497;DHT22;21609;49.298;6.844;2023-09-12T01:44:17;24.80;61.90
35497;DHT22;21609;49.298;6.844;2023-09-12T01:46:43;24.80;62.00
35497;DHT22;21609;49.298;6.844;2023-09-12T01:49:09;24.80;62.00
35497;DHT22;21609;49.298;6.844;2023-09-12T01:51:35;24.80;62.00
35497;DHT22;21609;49.298;6.844;2023-09-12T01:54:00;24.80;62.00
35497;DHT22;21609;49.298;6.844;2023-09-12T01:56:26;24.80;62.00
35497;DHT22;21609;49.298;6.844;2023-09-12T01:58:51;24.70;61.90
35497;DHT22;21609;49.298;6.844;2023-09-12T02:01:17;24.80;62.00
35497;DHT22;21609;49.298;6.844;2023-09-12T02:03:42;24.70;61.90
35497;DHT22;21609;49.298;6.844;2023-09-12T02:06:08;24.80;62.10
35497;DHT22;21609;49.298;6.844;2023-09-12T02:08:33;24.70;61.90
35497;DHT22;21609;49.298;6.844;2023-09-12T02:10:59;24.80;62.10
35497;DHT22;21609;49.298;6.844;2023-09-12T02:13:24;24.70;61.90
35497;DHT22;21609;49.298;6.844;2023-09-12T02:15:50;24.70;61.90
35497;DHT22;21609;49.298;6.844;2023-09-12T02:18:15;24.70;62.00
35497;DHT22;21609;49.298;6.844;2023-09-12T02:20:41;24.80;62.00
35497;DHT22;21609;49.298;6.844;2023-09-12T02:23:07;24.70;62.00
35497;DHT22;21609;49.298;6.844;2023-09-12T02:25:32;24.70;62.00
35497;DHT22;21609;49.298;6.844;2023-09-12T02:27:58;24.70;62.00
35497;DHT22;21609;49.298;6.844;2023-09-12T02:30:23;24.70;62.00
35497;DHT22;21609;49.298;6.844;2023-09-12T02:32:48;24.70;62.00
35497;DHT22;21609;49.298;6.844;2023-09-12T02:35:14;24.70;62.00
35497;DHT22;21609;49.298;6.844;2023-09-12T02:37:39;24.70;62.10
35497;DHT22;21609;49.298;6.844;2023-09-12T02:40:05;24.70;62.00
35497;DHT22;21609;49.298;6.844;2023-09-12T02:42:31;24.70;62.00
35497;DHT22;21609;49.298;6.844;2023-09-12T02:44:57;24.70;62.00
35497;DHT22;21609;49.298;6.844;2023-09-12T02:47:22;24.70;62.00
35497;DHT22;21609;49.298;6.844;2023-09-12T02:49:48;24.70;62.00
35497;DHT22;21609;49.298;6.844;2023-09-12T02:52:13;24.70;62.10
35497;DHT22;21609;49.298;6.844;2023-09-12T02:54:39;24.70;62.00
35497;DHT22;21609;49.298;6.844;2023-09-12T02:57:04;24.70;62.00
35497;DHT22;21609;49.298;6.844;2023-09-12T02:59:30;24.70;62.10
35497;DHT22;21609;49.298;6.844;2023-09-12T03:01:56;24.70;62.00
35497;DHT22;21609;49.298;6.844;2023-09-12T03:04:21;24.70;62.10
35497;DHT22;21609;49.298;6.844;2023-09-12T03:06:46;24.70;62.10
35497;DHT22;21609;49.298;6.844;2023-09-12T03:09:13;24.70;62.10
35497;DHT22;21609;49.298;6.844;2023-09-12T03:11:38;24.70;62.10
35497;DHT22;21609;49.298;6.844;2023-09-12T03:14:04;24.70;62.10
35497;DHT22;21609;49.298;6.844;2023-09-12T03:16:29;24.70;62.10
35497;DHT22;21609;49.298;6.844;2023-09-12T03:18:55;24.60;62.10
35497;DHT22;21609;49.298;6.844;2023-09-12T03:21:20;24.70;62.20
35497;DHT22;21609;49.298;6.844;2023-09-12T03:23:46;24.70;62.10
35497;DHT22;21609;49.298;6.844;2023-09-12T03:26:11;24.70;62.20
35497;DHT22;21609;49.298;6.844;2023-09-12T03:28:37;24.70;62.30
35497;DHT22;21609;49.298;6.844;2023-09-12T03:31:07;24.70;62.10
35497;DHT22;21609;49.298;6.844;2023-09-12T03:33:32;24.70;62.10
35497;DHT22;21609;49.298;6.844;2023-09-12T03:35:58;24.70;62.20
35497;DHT22;21609;49.298;6.844;2023-09-12T03:38:23;24.60;62.10
35497;DHT22;21609;49.298;6.844;2023-09-12T03:40:49;24.70;62.20
35497;DHT22;21609;49.298;6.844;2023-09-12T03:43:14;24.60;62.20
35497;DHT22;21609;49.298;6.844;2023-09-12T03:45:40;24.60;62.10
35497;DHT22;21609;49.298;6.844;2023-09-12T03:48:05;24.60;62.20
35497;DHT22;21609;49.298;6.844;2023-09-12T03:50:31;24.60;62.20
35497;DHT22;21609;49.298;6.844;2023-09-12T03:52:56;24.60;62.20
35497;DHT22;21609;49.298;6.844;2023-09-12T03:55:22;24.60;62.30
35497;DHT22;21609;49.298;6.844;2023-09-12T03:57:47;24.60;62.20
35497;DHT22;21609;49.298;6.844;2023-09-12T04:00:13;24.60;62.30
35497;DHT22;21609;49.298;6.844;2023-09-12T04:02:38;24.60;62.20
35497;DHT22;21609;49.298;6.844;2023-09-12T04:05:04;24.60;62.20
35497;DHT22;21609;49.298;6.844;2023-09-12T04:07:30;24.60;62.20
35497;DHT22;21609;49.298;6.844;2023-09-12T04:09:55;24.60;62.20
35497;DHT22;21609;49.298;6.844;2023-09-12T04:12:20;24.60;62.40
35497;DHT22;21609;49.298;6.844;2023-09-12T04:14:49;24.60;62.30
35497;DHT22;21609;49.298;6.844;2023-09-12T04:17:14;24.60;62.30
35497;DHT22;21609;49.298;6.844;2023-09-12T04:19:40;24.60;62.40
35497;DHT22;21609;49.298;6.844;2023-09-12T04:22:05;24.60;62.20
35497;DHT22;21609;49.298;6.844;2023-09-12T04:24:31;24.60;62.30
35497;DHT22;21609;49.298;6.844;2023-09-12T04:26:56;24.60;62.30
35497;DHT22;21609;49.298;6.844;2023-09-12T04:29:21;24.50;62.20
35497;DHT22;21609;49.298;6.844;2023-09-12T04:31:47;24.50;62.20
35497;DHT22;21609;49.298;6.844;2023-09-12T04:34:12;24.60;62.40
35497;DHT22;21609;49.298;6.844;2023-09-12T04:36:38;24.60;62.20
35497;DHT22;21609;49.298;6.844;2023-09-12T04:39:03;24.50;62.20
35497;DHT22;21609;49.298;6.844;2023-09-12T04:41:30;24.50;62.20
35497;DHT22;21609;49.298;6.844;2023-09-12T04:43:55;24.50;62.20
35497;DHT22;21609;49.298;6.844;2023-09-12T04:46:22;24.50;62.20
35497;DHT22;21609;49.298;6.844;2023-09-12T04:48:47;24.50;62.20
35497;DHT22;21609;49.298;6.844;2023-09-12T04:51:13;24.50;63.20
35497;DHT22;21609;49.298;6.844;2023-09-12T04:53:38;24.50;62.30
35497;DHT22;21609;49.298;6.844;2023-09-12T04:56:05;24.50;62.20
35497;DHT22;21609;49.298;6.844;2023-09-12T04:58:31;24.50;62.20
35497;DHT22;21609;49.298;6.844;2023-09-12T05:00:57;24.50;62.30
35497;DHT22;21609;49.298;6.844;2023-09-12T05:03:22;24.50;62.20
35497;DHT22;21609;49.298;6.844;2023-09-12T05:05:48;24.50;62.10
35497;DHT22;21609;49.298;6.844;2023-09-12T05:08:15;24.20;60.50
35497;DHT22;21609;49.298;6.844;2023-09-12T05:10:40;23.80;61.00
35497;DHT22;21609;49.298;6.844;2023-09-12T05:13:06;23.50;62.60
35497;DHT22;21609;49.298;6.844;2023-09-12T05:15:31;23.40;62.30
35497;DHT22;21609;49.298;6.844;2023-09-12T05:17:57;23.20;62.60
35497;DHT22;21609;49.298;6.844;2023-09-12T05:20:22;23.10;62.80
35497;DHT22;21609;49.298;6.844;2023-09-12T05:22:48;23.00;63.10
35497;DHT22;21609;49.298;6.844;2023-09-12T05:25:13;22.90;63.50
35497;DHT22;21609;49.298;6.844;2023-09-12T05:27:39;22.80;64.10
35497;DHT22;21609;49.298;6.844;2023-09-12T05:30:05;22.80;64.30
35497;DHT22;21609;49.298;6.844;2023-09-12T05:32:30;22.80;64.60
35497;DHT22;21609;49.298;6.844;2023-09-12T05:34:56;22.70;64.90
35497;DHT22;21609;49.298;6.844;2023-09-12T05:37:21;22.60;64.90
35497;DHT22;21609;49.298;6.844;2023-09-12T05:39:47;22.70;65.20
35497;DHT22;21609;49.298;6.844;2023-09-12T05:42:12;22.70;65.20
35497;DHT22;21609;49.298;6.844;2023-09-12T05:44:41;22.60;65.10
35497;DHT22;21609;49.298;6.844;2023-09-12T05:47:07;22.50;65.60
35497;DHT22;21609;49.298;6.844;2023-09-12T05:49:33;22.50;65.90
35497;DHT22;21609;49.298;6.844;2023-09-12T05:51:59;22.40;66.20
35497;DHT22;21609;49.298;6.844;2023-09-12T05:54:24;22.50;66.50
35497;DHT22;21609;49.298;6.844;2023-09-12T05:56:51;22.50;66.80
35497;DHT22;21609;49.298;6.844;2023-09-12T05:59:18;22.60;66.90
35497;DHT22;21609;49.298;6.844;2023-09-12T06:01:43;22.60;66.90
35497;DHT22;21609;49.298;6.844;2023-09-12T06:04:08;22.50;67.40
35497;DHT22;21609;49.298;6.844;2023-09-12T06:06:34;22.40;67.50
35497;DHT22;21609;49.298;6.844;2023-09-12T06:09:00;22.50;67.90
35497;DHT22;21609;49.298;6.844;2023-09-12T06:11:25;22.50;68.20
35497;DHT22;21609;49.298;6.844;2023-09-12T06:13:51;22.50;68.20
35497;DHT22;21609;49.298;6.844;2023-09-12T06:16:16;22.60;68.40
35497;DHT22;21609;49.298;6.844;2023-09-12T06:18:42;22.60;68.00
35497;DHT22;21609;49.298;6.844;2023-09-12T06:21:07;22.60;67.90
35497;DHT22;21609;49.298;6.844;2023-09-12T06:23:34;22.60;68.00
35497;DHT22;21609;49.298;6.844;2023-09-12T06:25:59;22.60;68.20
35497;DHT22;21609;49.298;6.844;2023-09-12T06:28:28;22.50;68.80
35497;DHT22;21609;49.298;6.844;2023-09-12T06:30:55;22.50;68.90
35497;DHT22;21609;49.298;6.844;2023-09-12T06:33:22;22.60;69.10
35497;DHT22;21609;49.298;6.844;2023-09-12T06:35:50;22.50;69.70
35497;DHT22;21609;49.298;6.844;2023-09-12T06:38:24;22.50;69.70
35497;DHT22;21609;49.298;6.844;2023-09-12T06:40:49;22.60;70.00
35497;DHT22;21609;49.298;6.844;2023-09-12T06:43:15;22.60;70.50
35497;DHT22;21609;49.298;6.844;2023-09-12T06:45:40;22.50;70.60
35497;DHT22;21609;49.298;6.844;2023-09-12T06:48:06;22.50;70.90
35497;DHT22;21609;49.298;6.844;2023-09-12T06:50:32;22.50;70.60
35497;DHT22;21609;49.298;6.844;2023-09-12T06:52:57;22.60;70.80
35497;DHT22;21609;49.298;6.844;2023-09-12T06:55:23;22.60;70.80
35497;DHT22;21609;49.298;6.844;2023-09-12T06:57:49;22.60;71.50
35497;DHT22;21609;49.298;6.844;2023-09-12T07:00:14;22.60;70.50
35497;DHT22;21609;49.298;6.844;2023-09-12T07:02:40;22.60;70.90
35497;DHT22;21609;49.298;6.844;2023-09-12T07:05:05;22.70;70.70
35497;DHT22;21609;49.298;6.844;2023-09-12T07:07:31;22.80;71.10
35497;DHT22;21609;49.298;6.844;2023-09-12T07:09:57;22.80;70.60
35497;DHT22;21609;49.298;6.844;2023-09-12T07:12:23;22.80;70.40
35497;DHT22;21609;49.298;6.844;2023-09-12T07:14:48;22.80;70.60
35497;DHT22;21609;49.298;6.844;2023-09-12T07:17:16;22.80;70.70
35497;DHT22;21609;49.298;6.844;2023-09-12T07:19:42;22.80;70.60
35497;DHT22;21609;49.298;6.844;2023-09-12T07:22:08;22.90;70.80
35497;DHT22;21609;49.298;6.844;2023-09-12T07:24:33;22.90;71.40
35497;DHT22;21609;49.298;6.844;2023-09-12T07:26:59;22.90;71.20
35497;DHT22;21609;49.298;6.844;2023-09-12T07:29:24;22.90;71.30
35497;DHT22;21609;49.298;6.844;2023-09-12T07:31:53;22.90;71.30
35497;DHT22;21609;49.298;6.844;2023-09-12T07:34:19;23.00;71.40
35497;DHT22;21609;49.298;6.844;2023-09-12T07:36:45;23.00;71.30
35497;DHT22;21609;49.298;6.844;2023-09-12T07:39:10;23.00;72.30
35497;DHT22;21609;49.298;6.844;2023-09-12T07:41:36;23.00;72.10
35497;DHT22;21609;49.298;6.844;2023-09-12T07:44:01;23.10;71.80
35497;DHT22;21609;49.298;6.844;2023-09-12T07:46:33;23.10;72.20
35497;DHT22;21609;49.298;6.844;2023-09-12T07:48:58;23.10;72.00
35497;DHT22;21609;49.298;6.844;2023-09-12T07:51:23;23.10;72.00
35497;DHT22;21609;49.298;6.844;2023-09-12T07:53:49;23.20;72.30
35497;DHT22;21609;49.298;6.844;2023-09-12T07:56:15;23.20;72.00
35497;DHT22;21609;49.298;6.844;2023-09-12T07:58:40;23.20;72.20
35497;DHT22;21609;49.298;6.844;2023-09-12T08:01:06;23.20;72.60
35497;DHT22;21609;49.298;6.844;2023-09-12T08:03:33;23.20;71.90
35497;DHT22;21609;49.298;6.844;2023-09-12T08:06:00;23.20;72.00
35497;DHT22;21609;49.298;6.844;2023-09-12T08:08:26;23.20;71.60
35497;DHT22;21609;49.298;6.844;2023-09-12T08:10:51;23.20;71.70
35497;DHT22;21609;49.298;6.844;2023-09-12T08:13:17;23.20;71.80
35497;DHT22;21609;49.298;6.844;2023-09-12T08:15:42;23.20;71.50
35497;DHT22;21609;49.298;6.844;2023-09-12T08:18:08;23.30;71.70
35497;DHT22;21609;49.298;6.844;2023-09-12T08:20:33;23.30;71.80
35497;DHT22;21609;49.298;6.844;2023-09-12T08:22:59;23.30;71.50
35497;DHT22;21609;49.298;6.844;2023-09-12T08:25:24;23.40;72.50
35497;DHT22;21609;49.298;6.844;2023-09-12T08:27:50;23.40;71.30
35497;DHT22;21609;49.298;6.844;2023-09-12T08:30:15;23.40;71.30
35497;DHT22;21609;49.298;6.844;2023-09-12T08:32:41;23.40;71.50
35497;DHT22;21609;49.298;6.844;2023-09-12T08:35:09;23.50;71.10
35497;DHT22;21609;49.298;6.844;2023-09-12T08:37:36;23.50;70.10
35497;DHT22;21609;49.298;6.844;2023-09-12T08:40:01;23.50;71.20
35497;DHT22;21609;49.298;6.844;2023-09-12T08:42:27;23.50;71.40
35497;DHT22;21609;49.298;6.844;2023-09-12T08:44:55;23.50;71.50
35497;DHT22;21609;49.298;6.844;2023-09-12T08:47:22;23.50;71.40
35497;DHT22;21609;49.298;6.844;2023-09-12T08:49:48;23.50;71.50
35497;DHT22;21609;49.298;6.844;2023-09-12T08:52:13;23.50;71.50
35497;DHT22;21609;49.298;6.844;2023-09-12T08:54:39;23.50;71.50
35497;DHT22;21609;49.298;6.844;2023-09-12T08:57:04;23.50;71.20
35497;DHT22;21609;49.298;6.844;2023-09-12T08:59:33;23.50;72.00
35497;DHT22;21609;49.298;6.844;2023-09-12T09:02:00;23.50;71.50
35497;DHT22;21609;49.298;6.844;2023-09-12T09:04:28;23.60;71.60
35497;DHT22;21609;49.298;6.844;2023-09-12T09:06:55;23.60;71.60
35497;DHT22;21609;49.298;6.844;2023-09-12T09:09:21;23.60;71.80
35497;DHT22;21609;49.298;6.844;2023-09-12T09:11:47;23.60;71.80
35497;DHT22;21609;49.298;6.844;2023-09-12T09:14:13;23.60;71.80
35497;DHT22;21609;49.298;6.844;2023-09-12T09:16:39;23.60;71.70
35497;DHT22;21609;49.298;6.844;2023-09-12T09:19:05;23.60;71.60
35497;DHT22;21609;49.298;6.844;2023-09-12T09:21:35;23.60;71.70
35497;DHT22;21609;49.298;6.844;2023-09-12T09:24:01;23.70;71.60
35497;DHT22;21609;49.298;6.844;2023-09-12T09:26:45;23.70;71.60
35497;DHT22;21609;49.298;6.844;2023-09-12T09:29:12;23.70;72.10
35497;DHT22;21609;49.298;6.844;2023-09-12T09:31:39;23.70;71.90
35497;DHT22;21609;49.298;6.844;2023-09-12T09:34:09;23.70;72.00
35497;DHT22;21609;49.298;6.844;2023-09-12T09:36:35;23.70;72.10
35497;DHT22;21609;49.298;6.844;2023-09-12T09:39:01;23.80;72.50
35497;DHT22;21609;49.298;6.844;2023-09-12T09:41:29;23.80;71.90
35497;DHT22;21609;49.298;6.844;2023-09-12T09:43:56;23.80;71.70
35497;DHT22;21609;49.298;6.844;2023-09-12T09:46:21;23.80;71.50
35497;DHT22;21609;49.298;6.844;2023-09-12T09:48:50;23.80;71.90
35497;DHT22;21609;49.298;6.844;2023-09-12T09:51:15;23.90;72.30
35497;DHT22;21609;49.298;6.844;2023-09-12T09:53:41;23.90;72.30
35497;DHT22;21609;49.298;6.844;2023-09-12T09:56:09;23.90;72.30
35497;DHT22;21609;49.298;6.844;2023-09-12T09:58:46;23.90;71.90
35497;DHT22;21609;49.298;6.844;2023-09-12T10:01:18;23.90;70.30
35497;DHT22;21609;49.298;6.844;2023-09-12T10:03:51;23.90;71.10
35497;DHT22;21609;49.298;6.844;2023-09-12T10:06:17;24.00;71.50
35497;DHT22;21609;49.298;6.844;2023-09-12T10:08:53;24.00;72.10
35497;DHT22;21609;49.298;6.844;2023-09-12T10:11:20;24.00;71.60
35497;DHT22;21609;49.298;6.844;2023-09-12T10:13:57;24.00;70.90
35497;DHT22;21609;49.298;6.844;2023-09-12T10:16:23;24.10;71.40
35497;DHT22;21609;49.298;6.844;2023-09-12T10:18:55;24.10;70.70
35497;DHT22;21609;49.298;6.844;2023-09-12T10:21:24;24.10;71.20
35497;DHT22;21609;49.298;6.844;2023-09-12T10:23:53;24.20;70.40
35497;DHT22;21609;49.298;6.844;2023-09-12T10:26:20;24.20;71.10
35497;DHT22;21609;49.298;6.844;2023-09-12T10:28:45;24.20;71.10
35497;DHT22;21609;49.298;6.844;2023-09-12T10:31:12;24.20;70.20
35497;DHT22;21609;49.298;6.844;2023-09-12T10:33:38;24.20;70.30
35497;DHT22;21609;49.298;6.844;2023-09-12T10:36:03;24.20;69.80
35497;DHT22;21609;49.298;6.844;2023-09-12T10:38:30;24.20;69.70
35497;DHT22;21609;49.298;6.844;2023-09-12T10:40:58;24.30;69.90
35497;DHT22;21609;49.298;6.844;2023-09-12T10:43:24;24.30;70.10
35497;DHT22;21609;49.298;6.844;2023-09-12T10:45:50;24.30;70.10
35497;DHT22;21609;49.298;6.844;2023-09-12T10:48:16;24.30;69.60
35497;DHT22;21609;49.298;6.844;2023-09-12T10:50:42;24.30;69.60
35497;DHT22;21609;49.298;6.844;2023-09-12T10:53:12;24.30;69.70
35497;DHT22;21609;49.298;6.844;2023-09-12T10:55:39;24.30;69.30
35497;DHT22;21609;49.298;6.844;2023-09-12T10:58:08;24.30;69.70
35497;DHT22;21609;49.298;6.844;2023-09-12T11:00:35;24.40;69.50
35497;DHT22;21609;49.298;6.844;2023-09-12T11:05:57;24.40;69.40
35497;DHT22;21609;49.298;6.844;2023-09-12T11:08:22;24.40;69.90
35497;DHT22;21609;49.298;6.844;2023-09-12T11:13:37;24.40;69.00
35497;DHT22;21609;49.298;6.844;2023-09-12T11:16:11;24.40;69.40
35497;DHT22;21609;49.298;6.844;2023-09-12T11:21:31;24.50;69.30
35497;DHT22;21609;49.298;6.844;2023-09-12T11:23:56;24.40;68.90
35497;DHT22;21609;49.298;6.844;2023-09-12T11:26:22;24.40;68.60
35497;DHT22;21609;49.298;6.844;2023-09-12T11:28:48;24.50;68.70
35497;DHT22;21609;49.298;6.844;2023-09-12T11:31:24;24.50;68.40
35497;DHT22;21609;49.298;6.844;2023-09-12T11:33:49;24.50;68.30
35497;DHT22;21609;49.298;6.844;2023-09-12T11:36:15;24.50;68.20
35497;DHT22;21609;49.298;6.844;2023-09-12T11:38:43;24.50;68.10
35497;DHT22;21609;49.298;6.844;2023-09-12T11:41:14;24.50;68.10
35497;DHT22;21609;49.298;6.844;2023-09-12T11:43:40;24.50;68.20
35497;DHT22;21609;49.298;6.844;2023-09-12T11:46:06;24.50;68.10
35497;DHT22;21609;49.298;6.844;2023-09-12T11:48:32;24.50;68.10
35497;DHT22;21609;49.298;6.844;2023-09-12T11:50:57;24.60;68.20
35497;DHT22;21609;49.298;6.844;2023-09-12T11:53:24;24.60;67.90
35497;DHT22;21609;49.298;6.844;2023-09-12T11:55:52;24.60;67.80
35497;DHT22;21609;49.298;6.844;2023-09-12T11:58:18;24.60;67.80
35497;DHT22;21609;49.298;6.844;2023-09-12T12:00:51;24.60;67.90
35497;DHT22;21609;49.298;6.844;2023-09-12T12:03:17;24.60;67.70
35497;DHT22;21609;49.298;6.844;2023-09-12T12:05:43;24.60;67.70
35497;DHT22;21609;49.298;6.844;2023-09-12T12:08:09;24.60;68.10
35497;DHT22;21609;49.298;6.844;2023-09-12T12:10:35;24.70;67.80
35497;DHT22;21609;49.298;6.844;2023-09-12T12:13:03;24.70;67.90
35497;DHT22;21609;49.298;6.844;2023-09-12T12:15:28;24.70;67.80
35497;DHT22;21609;49.298;6.844;2023-09-12T12:17:54;24.70;67.80
35497;DHT22;21609;49.298;6.844;2023-09-12T12:20:21;24.70;67.50
35497;DHT22;21609;49.298;6.844;2023-09-12T12:22:46;24.70;67.70
35497;DHT22;21609;49.298;6.844;2023-09-12T12:25:12;24.70;67.10
35497;DHT22;21609;49.298;6.844;2023-09-12T12:27:38;24.70;66.70
35497;DHT22;21609;49.298;6.844;2023-09-12T12:30:08;24.70;66.70
35497;DHT22;21609;49.298;6.844;2023-09-12T12:32:34;24.70;66.60
35497;DHT22;21609;49.298;6.844;2023-09-12T12:34:59;24.70;66.60
35497;DHT22;21609;49.298;6.844;2023-09-12T12:37:28;24.70;66.50
35497;DHT22;21609;49.298;6.844;2023-09-12T12:39:55;24.80;66.70
35497;DHT22;21609;49.298;6.844;2023-09-12T12:42:21;24.80;66.80
35497;DHT22;21609;49.298;6.844;2023-09-12T12:44:52;24.80;66.90
35497;DHT22;21609;49.298;6.844;2023-09-12T12:47:18;24.80;67.10
35497;DHT22;21609;49.298;6.844;2023-09-12T12:49:43;24.80;67.30
35497;DHT22;21609;49.298;6.844;2023-09-12T12:52:09;24.90;67.00
35497;DHT22;21609;49.298;6.844;2023-09-12T12:54:35;24.90;66.90
35497;DHT22;21609;49.298;6.844;2023-09-12T12:57:00;24.90;66.80
35497;DHT22;21609;49.298;6.844;2023-09-12T12:59:28;24.90;67.10
35497;DHT22;21609;49.298;6.844;2023-09-12T13:01:55;24.90;66.80
35497;DHT22;21609;49.298;6.844;2023-09-12T13:04:20;24.90;67.00
35497;DHT22;21609;49.298;6.844;2023-09-12T13:06:46;24.90;66.50
35497;DHT22;21609;49.298;6.844;2023-09-12T13:09:11;24.90;66.60
35497;DHT22;21609;49.298;6.844;2023-09-12T13:11:37;24.90;66.50
35497;DHT22;21609;49.298;6.844;2023-09-12T13:14:04;24.90;67.60
35497;DHT22;21609;49.298;6.844;2023-09-12T13:16:36;24.90;69.80
35497;DHT22;21609;49.298;6.844;2023-09-12T13:19:01;24.90;68.60
35497;DHT22;21609;49.298;6.844;2023-09-12T13:21:27;24.90;68.90
35497;DHT22;21609;49.298;6.844;2023-09-12T13:23:53;24.90;68.60
35497;DHT22;21609;49.298;6.844;2023-09-12T13:26:18;24.90;68.40
35497;DHT22;21609;49.298;6.844;2023-09-12T13:28:44;24.90;67.00
35497;DHT22;21609;49.298;6.844;2023-09-12T13:31:09;24.90;68.00
35497;DHT22;21609;49.298;6.844;2023-09-12T13:33:35;24.90;68.10
35497;DHT22;21609;49.298;6.844;2023-09-12T13:36:00;24.90;68.10
35497;DHT22;21609;49.298;6.844;2023-09-12T13:38:26;24.90;67.70
35497;DHT22;21609;49.298;6.844;2023-09-12T13:40:51;24.90;69.20
35497;DHT22;21609;49.298;6.844;2023-09-12T13:43:17;24.90;68.90
35497;DHT22;21609;49.298;6.844;2023-09-12T13:45:43;24.90;68.40
35497;DHT22;21609;49.298;6.844;2023-09-12T13:48:09;24.90;68.00
35497;DHT22;21609;49.298;6.844;2023-09-12T13:50:34;24.90;67.80
35497;DHT22;21609;49.298;6.844;2023-09-12T13:53:00;24.90;69.00
35497;DHT22;21609;49.298;6.844;2023-09-12T13:55:29;24.90;68.60
35497;DHT22;21609;49.298;6.844;2023-09-12T13:57:54;24.90;68.30
35497;DHT22;21609;49.298;6.844;2023-09-12T14:00:20;25.00;67.30
35497;DHT22;21609;49.298;6.844;2023-09-12T14:02:45;25.00;68.10
35497;DHT22;21609;49.298;6.844;2023-09-12T14:05:11;25.00;67.60
35497;DHT22;21609;49.298;6.844;2023-09-12T14:07:37;25.00;68.10
35497;DHT22;21609;49.298;6.844;2023-09-12T14:10:05;24.90;68.10
35497;DHT22;21609;49.298;6.844;2023-09-12T14:12:30;25.00;68.00
35497;DHT22;21609;49.298;6.844;2023-09-12T14:14:56;25.00;67.40
35497;DHT22;21609;49.298;6.844;2023-09-12T14:17:21;25.00;68.40
35497;DHT22;21609;49.298;6.844;2023-09-12T14:19:47;25.00;68.40
35497;DHT22;21609;49.298;6.844;2023-09-12T14:22:12;24.90;68.10
35497;DHT22;21609;49.298;6.844;2023-09-12T14:24:38;24.90;68.50
35497;DHT22;21609;49.298;6.844;2023-09-12T14:27:04;24.90;68.30
35497;DHT22;21609;49.298;6.844;2023-09-12T14:29:29;25.00;68.00
35497;DHT22;21609;49.298;6.844;2023-09-12T14:31:55;25.00;67.50
35497;DHT22;21609;49.298;6.844;2023-09-12T14:34:27;25.00;67.90
35497;DHT22;21609;49.298;6.844;2023-09-12T14:36:56;25.00;67.40
35497;DHT22;21609;49.298;6.844;2023-09-12T14:39:22;25.00;66.70
35497;DHT22;21609;49.298;6.844;2023-09-12T14:41:47;25.00;66.70
35497;DHT22;21609;49.298;6.844;2023-09-12T14:44:19;25.00;66.70
35497;DHT22;21609;49.298;6.844;2023-09-12T14:46:45;25.00;66.70
35497;DHT22;21609;49.298;6.844;2023-09-12T14:49:10;25.00;66.90
35497;DHT22;21609;49.298;6.844;2023-09-12T14:51:36;25.00;67.30
35497;DHT22;21609;49.298;6.844;2023-09-12T14:54:04;25.00;67.20
35497;DHT22;21609;49.298;6.844;2023-09-12T14:56:30;25.00;67.50
35497;DHT22;21609;49.298;6.844;2023-09-12T14:58:56;25.00;67.60
35497;DHT22;21609;49.298;6.844;2023-09-12T15:01:21;25.00;67.60
35497;DHT22;21609;49.298;6.844;2023-09-12T15:03:47;25.00;67.10
35497;DHT22;21609;49.298;6.844;2023-09-12T15:06:12;25.00;67.90
35497;DHT22;21609;49.298;6.844;2023-09-12T15:08:37;25.00;68.00
35497;DHT22;21609;49.298;6.844;2023-09-12T15:11:03;25.00;67.50
35497;DHT22;21609;49.298;6.844;2023-09-12T15:13:30;25.00;67.60
35497;DHT22;21609;49.298;6.844;2023-09-12T15:15:56;25.00;67.60
35497;DHT22;21609;49.298;6.844;2023-09-12T15:18:21;25.00;67.20
35497;DHT22;21609;49.298;6.844;2023-09-12T15:20:47;25.00;67.60
35497;DHT22;21609;49.298;6.844;2023-09-12T15:23:12;25.00;67.40
35497;DHT22;21609;49.298;6.844;2023-09-12T15:25:37;25.00;67.10
35497;DHT22;21609;49.298;6.844;2023-09-12T15:28:03;25.00;67.70
35497;DHT22;21609;49.298;6.844;2023-09-12T15:30:29;25.00;67.50
35497;DHT22;21609;49.298;6.844;2023-09-12T15:32:54;25.00;66.40